Time;durP1;ratioP1;P1;durP2;ratioP2;P2;SDS_P1;SDS_P2;PMS_P1;PMS_P2;Temp;Humidity;BMP_temperature;BMP_pressure;BME280_temperature;BME280_humidity;BME280_pressure;Samples;Min_cycle;Max_cycle;Signal;HPM_P1;HPM_P2
2021/08/28 00:02:07;;;;;;;4.72;3.10;;;;;;;13.22;100.00;98758.44;5013736;28;20015;-72
2021/08/28 00:04:34;;;;;;;6.05;3.45;;;;;;;13.28;100.00;98765.78;5015095;28;20439;-72
2021/08/28 00:07:00;;;;;;;6.03;3.55;;;;;;;13.29;100.00;98767.41;5001844;28;20049;-72
2021/08/28 00:09:25;;;;;;;6.18;3.97;;;;;;;13.40;100.00;98773.19;5009963;28;20105;-72
2021/08/28 00:11:51;;;;;;;10.57;4.30;;;;;;;13.36;100.00;98773.63;5015413;28;20026;-72
2021/08/28 00:14:16;;;;;;;9.07;5.10;;;;;;;13.43;100.00;98778.19;5015263;28;20026;-72
2021/08/28 00:16:41;;;;;;;9.75;5.70;;;;;;;13.30;100.00;98760.91;5010349;28;20029;-73
2021/08/28 00:19:06;;;;;;;9.98;5.10;;;;;;;13.43;100.00;98757.25;4994214;28;20080;-73
2021/08/28 00:21:34;;;;;;;9.82;4.88;;;;;;;13.40;99.77;98759.59;5012133;28;20029;-73
2021/08/28 00:24:00;;;;;;;10.98;5.93;;;;;;;13.43;99.84;98748.28;5014801;28;20028;-73
2021/08/28 00:26:25;;;;;;;8.00;5.88;;;;;;;13.38;99.26;98744.34;5014756;28;20025;-72
2021/08/28 00:28:50;;;;;;;9.32;5.32;;;;;;;13.41;99.55;98756.66;5014476;28;20119;-73
2021/08/28 00:31:15;;;;;;;11.35;5.35;;;;;;;13.48;99.64;98768.28;5014901;28;20468;-72
2021/08/28 00:33:41;;;;;;;7.68;4.80;;;;;;;13.44;99.73;98763.53;5013887;28;20068;-72
2021/08/28 00:36:06;;;;;;;9.35;4.28;;;;;;;13.35;99.62;98739.34;5014164;28;20028;-72
2021/08/28 00:38:31;;;;;;;9.30;4.00;;;;;;;13.35;99.12;98739.34;5014448;28;20022;-73
2021/08/28 00:40:57;;;;;;;7.38;3.40;;;;;;;13.44;99.70;98752.66;5014418;28;20487;-72
2021/08/28 00:43:25;;;;;;;6.38;3.60;;;;;;;13.29;99.94;98742.97;5023796;28;20026;-72
2021/08/28 00:45:50;;;;;;;6.35;3.50;;;;;;;13.39;99.92;98753.34;5014101;28;20025;-72
2021/08/28 00:48:16;;;;;;;8.02;3.83;;;;;;;13.32;100.00;98749.84;5014002;28;20022;-73
2021/08/28 00:50:42;;;;;;;7.68;4.00;;;;;;;13.44;100.00;98755.38;5014026;28;20026;-73
2021/08/28 00:53:13;;;;;;;7.60;3.83;;;;;;;13.40;99.52;98748.72;5013780;28;20036;-72
2021/08/28 00:55:40;;;;;;;4.35;3.38;;;;;;;13.51;99.00;98756.16;4998119;28;20100;-73
2021/08/28 00:58:06;;;;;;;8.70;3.92;;;;;;;13.52;98.55;98761.38;5013838;28;20053;-72
2021/08/28 01:00:45;;;;;;;7.38;4.00;;;;;;;13.64;98.21;98774.22;5014016;28;20029;-73
2021/08/28 01:03:12;;;;;;;6.23;4.00;;;;;;;13.45;98.59;98765.19;5010675;28;20022;-72
2021/08/28 01:05:46;;;;;;;5.18;2.83;;;;;;;13.52;98.85;98769.53;5013746;28;20029;-72
2021/08/28 01:08:45;;;;;;;4.68;3.20;;;;;;;13.57;98.82;98774.28;5013811;28;20034;-72
2021/08/28 01:11:25;;;;;;;5.97;3.03;;;;;;;13.53;99.33;98764.91;5012480;28;20120;-72
2021/08/28 01:13:55;;;;;;;4.28;2.92;;;;;;;13.49;99.12;98767.25;5013171;28;20064;-72
2021/08/28 01:16:22;;;;;;;5.47;3.20;;;;;;;13.56;99.29;98776.16;5013500;28;20025;-72
2021/08/28 01:18:52;;;;;;;5.80;3.05;;;;;;;13.49;98.54;98761.81;5013810;28;20447;-72
2021/08/28 01:21:35;;;;;;;5.50;3.45;;;;;;;13.44;99.56;98758.94;5012253;28;20029;-72
2021/08/28 01:24:05;;;;;;;7.68;3.33;;;;;;;13.47;98.99;98753.06;5013099;28;20030;-73
2021/08/28 01:26:37;;;;;;;9.50;3.53;;;;;;;13.51;99.28;98759.69;5012336;28;20034;-73
2021/08/28 01:29:25;;;;;;;6.88;3.17;;;;;;;13.55;98.86;98760.91;5013247;28;20033;-73
2021/08/28 01:31:52;;;;;;;8.98;3.10;;;;;;;13.47;99.50;98754.94;5013341;28;20026;-72
2021/08/28 01:34:18;;;;;;;7.82;3.45;;;;;;;13.45;99.82;98759.75;5012986;28;20026;-72
2021/08/28 01:36:48;;;;;;;7.72;3.42;;;;;;;13.44;99.62;98752.66;5013105;28;20029;-72
2021/08/28 01:39:15;;;;;;;6.47;3.10;;;;;;;13.38;99.68;98754.38;5014104;28;20073;-72
2021/08/28 01:41:45;;;;;;;6.45;3.60;;;;;;;13.19;99.82;98723.59;5011615;28;20026;-72
2021/08/28 01:44:13;;;;;;;4.85;3.10;;;;;;;13.20;100.00;98736.09;5012141;28;20471;-72
2021/08/28 01:46:39;;;;;;;4.60;2.85;;;;;;;13.28;100.00;98743.19;5011444;28;20026;-72
2021/08/28 01:49:07;;;;;;;5.53;3.35;;;;;;;13.20;100.00;98741.53;5013211;28;20546;-72
2021/08/28 01:51:33;;;;;;;6.90;3.50;;;;;;;13.21;100.00;98751.38;5013174;28;20034;-72
2021/08/28 01:53:58;;;;;;;6.78;3.80;;;;;;;13.15;100.00;98752.22;5010894;28;20537;-72
2021/08/28 01:56:24;;;;;;;6.32;3.63;;;;;;;13.13;100.00;98740.78;5013051;28;20356;-73
2021/08/28 01:58:53;;;;;;;4.50;3.42;;;;;;;13.07;100.00;98736.22;5012713;28;20105;-72
2021/08/28 02:01:18;;;;;;;;;;;;;;;13.23;100.00;98762.84;5013373;28;20045;-73
2021/08/28 02:03:44;;;;;;;5.53;3.50;;;;;;;13.27;100.00;98758.66;5006339;28;20379;-73
2021/08/28 02:06:29;;;;;;;8.60;4.18;;;;;;;13.20;100.00;98755.13;4993354;28;20026;-72
2021/08/28 02:09:00;;;;;;;9.10;4.10;;;;;;;13.20;100.00;98757.84;4991819;28;20391;-72
2021/08/28 02:11:35;;;;;;;6.72;4.00;;;;;;;13.10;100.00;98747.50;5005385;28;20518;-72
2021/08/28 02:14:21;;;;;;;6.43;3.85;;;;;;;13.18;100.00;98764.53;5012336;28;20033;-72
2021/08/28 02:16:47;;;;;;;5.03;3.90;;;;;;;13.19;100.00;98763.50;5017467;28;20062;-73
2021/08/28 02:19:31;;;;;;;7.55;4.32;;;;;;;13.15;100.00;98757.66;5019791;28;20049;-72
2021/08/28 02:21:59;;;;;;;7.88;4.10;;;;;;;13.12;100.00;98764.38;5019464;28;20108;-73
2021/08/28 02:24:31;;;;;;;6.75;4.47;;;;;;;13.18;100.00;98765.41;5012154;28;20032;-73
2021/08/28 02:27:14;;;;;;;11.02;4.57;;;;;;;12.97;100.00;98733.16;4999604;28;20034;-72
2021/08/28 02:29:54;;;;;;;11.02;5.28;;;;;;;13.14;100.00;98765.00;5014678;28;20057;-72
2021/08/28 02:32:20;;;;;;;8.38;4.85;;;;;;;13.20;100.00;98773.31;4999667;28;20045;-72
2021/08/28 02:34:47;;;;;;;8.88;5.32;;;;;;;13.22;100.00;98765.78;5017941;28;20022;-72
2021/08/28 02:37:15;;;;;;;9.50;5.47;;;;;;;13.23;100.00;98760.13;5018637;28;20036;-72
2021/08/28 02:39:43;;;;;;;10.88;6.40;;;;;;;13.22;100.00;98758.44;5019214;28;20460;-72
2021/08/28 02:42:10;;;;;;;8.93;5.72;;;;;;;13.28;100.00;98771.19;5018830;28;20083;-72
2021/08/28 02:44:39;;;;;;;10.07;5.65;;;;;;;13.15;100.00;98744.09;5018739;28;20112;-72
2021/08/28 02:47:06;;;;;;;8.82;5.43;;;;;;;13.27;100.00;98758.66;5018833;28;20032;-72
2021/08/28 02:49:35;;;;;;;9.93;5.60;;;;;;;13.27;100.00;98760.53;5018634;28;20025;-72
2021/08/28 02:52:03;;;;;;;8.65;5.95;;;;;;;13.19;100.00;98752.66;5017420;28;20033;-72
2021/08/28 02:54:29;;;;;;;11.82;6.47;;;;;;;13.21;100.00;98761.41;5017193;28;20022;-72
2021/08/28 02:56:55;;;;;;;11.48;6.15;;;;;;;13.15;100.00;98765.81;5018643;28;20033;-72
2021/08/28 02:59:24;;;;;;;7.90;6.22;;;;;;;13.09;100.00;98762.09;5018729;28;20108;-72
2021/08/28 03:01:49;;;;;;;12.35;6.88;;;;;;;12.94;100.00;98746.16;5018805;28;20105;-72
2021/08/28 03:04:17;;;;;;;10.27;6.40;;;;;;;13.00;100.00;98757.19;5017779;28;20106;-72
2021/08/28 03:06:45;;;;;;;9.60;6.43;;;;;;;12.85;100.00;98733.06;5018863;28;20511;-72
2021/08/28 03:09:10;;;;;;;12.50;6.57;;;;;;;12.97;100.00;98754.88;5017148;28;20025;-72
2021/08/28 03:11:36;;;;;;;11.25;6.60;;;;;;;12.91;100.00;98748.44;5018221;28;20029;-73
2021/08/28 03:14:01;;;;;;;10.98;6.90;;;;;;;12.85;100.00;98744.75;5018353;28;20057;-72
2021/08/28 03:16:29;;;;;;;12.27;6.85;;;;;;;12.82;100.00;98744.34;5018491;28;20018;-72
2021/08/28 03:18:56;;;;;;;9.35;6.43;;;;;;;12.95;100.00;98752.41;5018513;28;20018;-72
2021/08/28 03:21:24;;;;;;;10.52;7.15;;;;;;;12.95;100.00;98738.81;5000981;28;20030;-72
2021/08/28 03:23:50;;;;;;;11.93;7.35;;;;;;;12.88;100.00;98733.44;4998553;28;20431;-72
2021/08/28 03:26:20;;;;;;;9.45;7.10;;;;;;;12.81;100.00;98732.66;5014169;28;20022;-72
2021/08/28 03:28:47;;;;;;;13.23;7.95;;;;;;;12.89;100.00;98755.97;5014347;28;20038;-72
2021/08/28 03:31:13;;;;;;;12.57;7.50;;;;;;;12.90;100.00;98747.63;5013910;28;20025;-72
2021/08/28 03:33:40;;;;;;;11.93;7.60;;;;;;;12.84;100.00;98734.13;5015217;28;20030;-72
2021/08/28 03:36:06;;;;;;;11.57;7.47;;;;;;;12.96;100.00;98742.38;5013787;28;20476;-72
2021/08/28 03:38:34;;;;;;;14.73;7.68;;;;;;;12.90;100.00;98722.38;5015331;28;20034;-72
2021/08/28 03:41:00;;;;;;;11.07;7.28;;;;;;;12.88;100.00;98733.44;5014044;28;20026;-72
2021/08/28 03:43:26;;;;;;;11.10;7.47;;;;;;;13.00;100.00;98746.31;5014982;28;20065;-72
2021/08/28 03:45:51;;;;;;;14.05;7.93;;;;;;;12.96;100.00;98728.78;5013784;28;20426;-72
2021/08/28 03:48:20;;;;;;;14.75;7.85;;;;;;;13.16;100.00;98751.19;5028030;28;20451;-72
2021/08/28 03:50:46;;;;;;;13.25;7.82;;;;;;;13.06;100.00;98729.13;5033607;28;20023;-71
2021/08/28 03:53:11;;;;;;;10.27;7.18;;;;;;;13.21;100.00;98755.97;5012342;28;20049;-72
2021/08/28 03:55:36;;;;;;;11.82;6.88;;;;;;;13.19;100.00;98758.91;5015173;28;20026;-72
2021/08/28 03:58:02;;;;;;;12.90;7.70;;;;;;;13.13;100.00;98748.94;5015087;28;20050;-72
2021/08/28 04:00:28;;;;;;;12.10;8.45;;;;;;;13.20;100.00;98760.56;5014701;28;20061;-72
2021/08/28 04:02:54;;;;;;;10.30;7.05;;;;;;;13.09;100.00;98744.97;5013262;28;20026;-72
2021/08/28 04:05:19;;;;;;;10.23;7.75;;;;;;;13.12;100.00;98750.78;5014564;28;20036;-72
2021/08/28 04:07:44;;;;;;;11.82;7.15;;;;;;;13.15;100.00;98755.81;5014981;28;20029;-72
2021/08/28 04:10:10;;;;;;;10.05;7.57;;;;;;;13.09;100.00;98748.53;5014366;28;20028;-72
2021/08/28 04:12:35;;;;;;;11.68;7.95;;;;;;;13.15;100.00;98754.94;5014234;28;20030;-72
2021/08/28 04:15:01;;;;;;;16.92;7.97;;;;;;;13.03;100.00;98732.28;5014697;28;20431;-73
2021/08/28 04:17:27;;;;;;;15.50;8.80;;;;;;;13.13;100.00;98757.09;5014519;28;20348;-72
2021/08/28 04:19:52;;;;;;;13.75;9.10;;;;;;;13.15;100.00;98760.38;5013434;28;20029;-72
2021/08/28 04:22:17;;;;;;;11.35;8.30;;;;;;;12.99;100.00;98745.47;5016729;28;20060;-72
2021/08/28 04:24:42;;;;;;;14.15;8.90;;;;;;;13.05;100.00;98744.59;5014950;28;20030;-72
2021/08/28 04:27:08;;;;;;;13.50;9.27;;;;;;;13.06;100.00;98753.56;5011598;28;22439;-73
2021/08/28 04:29:33;;;;;;;15.93;10.98;;;;;;;13.10;100.00;98757.53;4995136;28;20026;-72
2021/08/28 04:31:58;;;;;;;18.08;10.45;;;;;;;12.94;100.00;98748.88;5003839;28;20022;-72
2021/08/28 04:34:24;;;;;;;18.15;10.93;;;;;;;12.97;100.00;98747.59;5013700;28;20026;-73
2021/08/28 04:36:49;;;;;;;15.35;10.68;;;;;;;12.92;100.00;98748.25;5014316;28;20033;-72
2021/08/28 04:39:14;;;;;;;14.93;10.27;;;;;;;12.89;100.00;98750.53;5013615;28;20033;-72
2021/08/28 04:41:40;;;;;;;17.10;9.98;;;;;;;13.00;100.00;98762.63;5011851;28;20029;-69
2021/08/28 04:44:05;;;;;;;15.00;9.93;;;;;;;13.03;100.00;98765.72;5006494;28;20037;-69
2021/08/28 04:46:30;;;;;;;15.73;10.00;;;;;;;12.94;100.00;98746.16;5008883;28;20100;-72
2021/08/28 04:48:56;;;;;;;17.48;11.23;;;;;;;13.05;100.00;98760.91;5014384;28;20026;-72
2021/08/28 04:51:21;;;;;;;18.42;11.88;;;;;;;12.98;100.00;98737.56;5014757;28;20530;-73
2021/08/28 04:53:46;;;;;;;19.83;11.30;;;;;;;13.09;100.00;98770.25;5010633;28;20172;-72
2021/08/28 04:56:12;;;;;;;17.17;11.38;;;;;;;13.00;100.00;98746.31;5013957;28;20028;-74
2021/08/28 04:58:37;;;;;;;16.55;11.00;;;;;;;13.13;100.00;98771.50;5013525;28;20071;-72
2021/08/28 05:01:03;;;;;;;17.70;11.63;;;;;;;13.03;100.00;98760.28;5014330;28;20071;-74
2021/08/28 05:03:28;;;;;;;18.17;10.93;;;;;;;13.06;100.00;98761.72;5014077;28;20026;-75
2021/08/28 05:05:54;;;;;;;19.88;11.32;;;;;;;13.12;100.00;98768.97;5016163;28;20029;-76
2021/08/28 05:08:20;;;;;;;17.08;10.70;;;;;;;13.22;100.00;98787.50;5014746;28;20026;-74
2021/08/28 05:10:53;;;;;;;19.02;12.07;;;;;;;13.25;100.00;98785.19;5014210;28;20034;-73
2021/08/28 05:13:18;;;;;;;20.77;11.77;;;;;;;13.22;100.00;98771.22;5011996;28;20026;-75
2021/08/28 05:15:43;;;;;;;19.38;12.55;;;;;;;13.20;100.00;98770.59;5011730;28;20025;-75
2021/08/28 05:18:09;;;;;;;21.35;12.15;;;;;;;13.24;100.00;98780.81;5015114;28;20495;-75
2021/08/28 05:20:35;;;;;;;21.55;12.48;;;;;;;13.19;100.00;98772.50;4995217;28;20026;-75
2021/08/28 05:23:00;;;;;;;20.10;11.93;;;;;;;13.19;100.00;98764.34;4994658;28;20022;-72
2021/08/28 05:25:26;;;;;;;24.13;11.82;;;;;;;13.31;100.00;98797.09;5013520;28;20083;-75
2021/08/28 05:27:52;;;;;;;17.73;11.00;;;;;;;13.30;100.00;98787.25;5014025;28;20029;-75
2021/08/28 05:30:17;;;;;;;18.45;11.65;;;;;;;13.35;100.00;98788.25;5014367;28;20044;-74
2021/08/28 05:32:43;;;;;;;19.52;11.80;;;;;;;13.37;100.00;98785.34;5014135;28;20030;-73
2021/08/28 05:35:09;;;;;;;21.00;11.88;;;;;;;13.46;100.00;98802.19;5014676;28;20031;-73
2021/08/28 05:37:35;;;;;;;17.77;11.90;;;;;;;13.44;100.00;98785.25;5075151;23;20039;-75
2021/08/28 05:40:00;;;;;;;20.40;12.38;;;;;;;13.62;100.00;98807.06;5013974;28;20022;-72
2021/08/28 05:42:25;;;;;;;18.17;10.95;;;;;;;13.72;100.00;98815.53;5003612;28;20026;-72
2021/08/28 05:44:51;;;;;;;21.75;12.38;;;;;;;13.68;100.00;98808.06;5014121;28;20061;-73
2021/08/28 05:47:16;;;;;;;18.90;12.38;;;;;;;13.50;100.00;98787.13;5003353;28;20133;-73
2021/08/28 05:49:41;;;;;;;22.80;12.02;;;;;;;13.64;100.00;98802.22;5013899;28;20041;-73
2021/08/28 05:52:07;;;;;;;16.25;11.05;;;;;;;13.74;100.00;98810.72;4997700;28;20034;-73
2021/08/28 05:54:32;;;;;;;17.15;10.75;;;;;;;13.82;100.00;98815.88;4998397;28;20110;-73
2021/08/28 05:56:57;;;;;;;17.13;11.48;;;;;;;13.73;100.00;98816.41;5001266;28;20033;-72
2021/08/28 05:59:23;;;;;;;15.48;10.23;;;;;;;13.83;100.00;98822.13;5005122;28;20024;-73
2021/08/28 06:01:48;;;;;;;20.48;10.88;;;;;;;13.88;99.50;98799.69;5000060;28;20372;-73
2021/08/28 06:04:14;;;;;;;15.73;10.45;;;;;;;13.99;97.96;98793.50;5004795;28;20033;-73
2021/08/28 06:06:39;;;;;;;14.00;9.55;;;;;;;14.18;97.11;98806.09;4999492;28;20018;-73
2021/08/28 06:09:04;;;;;;;15.02;9.88;;;;;;;14.35;96.38;98802.75;5002196;28;20077;-73
2021/08/28 06:11:29;;;;;;;14.80;8.50;;;;;;;14.67;95.00;98806.97;5006751;28;20037;-72
2021/08/28 06:13:55;;;;;;;16.58;9.05;;;;;;;14.87;93.44;98808.59;5006400;28;20041;-72
2021/08/28 06:16:21;;;;;;;14.80;8.65;;;;;;;15.21;90.66;98795.31;5002465;28;20053;-72
2021/08/28 06:18:46;;;;;;;12.73;8.57;;;;;;;15.53;89.66;98796.66;5005819;28;20480;-73
2021/08/28 06:21:11;;;;;;;11.15;8.43;;;;;;;15.73;88.37;98804.53;5006619;28;20030;-72
2021/08/28 06:23:37;;;;;;;9.65;8.10;;;;;;;15.78;86.25;98790.19;5004650;28;20058;-72
2021/08/28 06:26:02;;;;;;;10.32;7.28;;;;;;;16.05;84.60;98792.44;5001235;28;20492;-73
2021/08/28 06:28:27;;;;;;;10.27;7.15;;;;;;;16.12;85.70;98799.41;4999401;28;20026;-73
2021/08/28 06:30:53;;;;;;;8.60;7.03;;;;;;;16.29;84.20;98791.31;5004038;28;20539;-73
2021/08/28 06:33:18;;;;;;;10.27;6.60;;;;;;;16.37;82.56;98790.97;5010138;28;20030;-73
2021/08/28 06:35:43;;;;;;;10.73;6.13;;;;;;;16.41;82.08;98807.69;5009673;28;20026;-69
2021/08/28 06:38:09;;;;;;;9.07;6.38;;;;;;;16.35;82.85;98808.66;5008293;28;20029;-71
2021/08/28 06:40:34;;;;;;;11.95;6.25;;;;;;;16.62;80.95;98806.19;5009985;28;20018;-70
2021/08/28 06:43:00;;;;;;;10.27;5.80;;;;;;;16.83;79.60;98797.34;5010694;28;20030;-72
2021/08/28 06:45:25;;;;;;;6.90;5.20;;;;;;;17.18;77.34;98792.78;5009450;28;20161;-72
2021/08/28 06:47:50;;;;;;;9.35;5.30;;;;;;;17.73;75.74;98794.78;5003929;28;20033;-72
2021/08/28 06:50:16;;;;;;;6.50;5.25;;;;;;;17.95;73.24;98797.63;4996241;28;20120;-72
2021/08/28 06:52:41;;;;;;;7.72;4.78;;;;;;;18.35;72.07;98796.50;5000360;28;20488;-70
2021/08/28 06:55:07;;;;;;;6.35;4.38;;;;;;;17.91;74.58;98783.59;5002903;28;20033;-70
2021/08/28 06:57:32;;;;;;;5.93;4.10;;;;;;;17.45;75.75;98792.97;5005525;28;20100;-70
2021/08/28 06:59:58;;;;;;;6.93;4.40;;;;;;;17.07;76.08;98780.84;5005642;28;20484;-69
2021/08/28 07:02:24;;;;;;;6.10;4.50;;;;;;;16.94;77.48;98803.00;5007905;28;20053;-72
2021/08/28 07:04:49;;;;;;;8.45;4.72;;;;;;;16.62;78.11;98811.66;5009547;28;20061;-71
2021/08/28 07:07:15;;;;;;;7.22;4.30;;;;;;;16.26;78.75;98778.13;5014349;28;20084;-72
2021/08/28 07:09:40;;;;;;;6.78;4.78;;;;;;;16.12;79.56;98798.59;5015637;28;20125;-73
2021/08/28 07:12:06;;;;;;;5.32;4.30;;;;;;;15.89;80.22;98808.44;5011975;28;20040;-73
2021/08/28 07:14:31;;;;;;;8.45;4.97;;;;;;;15.76;80.53;98787.69;5011544;28;20030;-76
2021/08/28 07:16:56;;;;;;;6.90;5.15;;;;;;;15.65;82.10;98801.31;5008045;28;20534;-75
2021/08/28 07:19:22;;;;;;;6.30;4.57;;;;;;;15.73;82.88;98804.53;5006615;28;20026;-74
2021/08/28 07:21:47;;;;;;;5.00;4.50;;;;;;;15.94;81.41;98791.38;5007537;28;20041;-74
2021/08/28 07:24:12;;;;;;;5.43;3.90;;;;;;;16.03;81.12;98800.84;5007966;28;20030;-76
2021/08/28 07:26:37;;;;;;;5.30;4.15;;;;;;;15.84;81.02;98786.50;5005923;28;20361;-76
2021/08/28 07:29:03;;;;;;;4.93;4.20;;;;;;;16.05;80.34;98789.69;5010245;28;20021;-76
2021/08/28 07:31:28;;;;;;;6.55;4.18;;;;;;;15.77;80.59;98766.69;5009648;28;20025;-75
2021/08/28 07:33:53;;;;;;;7.70;4.10;;;;;;;15.65;80.43;98760.41;5004304;28;20361;-75
2021/08/28 07:36:19;;;;;;;6.47;3.63;;;;;;;15.71;80.79;98786.75;5006101;28;20030;-78
2021/08/28 07:38:44;;;;;;;7.75;3.60;;;;;;;15.69;81.33;98797.91;5006337;28;20044;-76
2021/08/28 07:41:09;;;;;;;5.28;3.35;;;;;;;15.84;80.81;98794.69;5007163;28;20380;-73
2021/08/28 07:43:35;;;;;;;5.70;3.15;;;;;;;15.95;80.55;98793.84;5009631;28;20496;-73
2021/08/28 07:46:00;;;;;;;6.30;3.17;;;;;;;16.15;79.21;98806.31;5010659;28;20053;-74
2021/08/28 07:48:26;;;;;;;3.97;2.95;;;;;;;16.32;78.18;98790.00;5009573;28;20125;-77
2021/08/28 07:50:51;;;;;;;3.53;2.47;;;;;;;16.54;77.50;98799.22;5003879;28;20046;-76
2021/08/28 07:53:16;;;;;;;3.35;2.55;;;;;;;17.00;75.76;98780.16;5008002;28;20033;-75
2021/08/28 07:55:42;;;;;;;2.97;2.10;;;;;;;17.18;73.07;98787.31;5010830;28;20079;-76
2021/08/28 07:58:07;;;;;;;3.22;2.30;;;;;;;17.68;72.09;98808.38;5004022;28;20065;-76
2021/08/28 08:00:33;;;;;;;3.75;2.00;;;;;;;18.05;70.59;98807.88;5005959;28;20452;-76
2021/08/28 08:02:58;;;;;;;3.35;2.38;;;;;;;18.08;68.43;98794.50;5006582;28;20065;-77
2021/08/28 08:05:24;;;;;;;3.45;2.08;;;;;;;18.12;70.18;98789.34;5009303;28;20038;-79
2021/08/28 08:07:49;;;;;;;3.50;2.15;;;;;;;18.26;69.72;98792.53;5000145;28;20384;-78
2021/08/28 08:10:14;;;;;;;2.45;1.73;;;;;;;18.33;68.91;98796.75;5003965;28;20052;-75
2021/08/28 08:12:40;;;;;;;5.40;1.50;;;;;;;18.60;67.50;98796.84;5009001;28;20361;-77
2021/08/28 08:15:06;;;;;;;2.38;1.88;;;;;;;18.81;67.09;98802.56;5006622;28;20065;-75
2021/08/28 08:17:31;;;;;;;3.15;1.80;;;;;;;19.15;66.51;98794.13;5007333;28;20507;-78
2021/08/28 08:19:57;;;;;;;1.90;1.48;;;;;;;19.24;66.31;98809.06;5010808;28;20014;-77
2021/08/28 08:22:22;;;;;;;2.78;1.40;;;;;;;19.11;67.44;98798.50;5009426;28;20539;-77
2021/08/28 08:24:49;;;;;;;2.08;1.48;;;;;;;19.53;64.25;98806.00;5008303;28;20535;-77
2021/08/28 08:27:14;;;;;;;2.60;1.50;;;;;;;19.29;64.41;98808.28;5004092;28;20026;-77
2021/08/28 08:29:40;;;;;;;4.40;1.63;;;;;;;18.89;64.91;98820.47;5011734;28;20392;-76
2021/08/28 08:32:05;;;;;;;2.13;1.48;;;;;;;18.21;66.87;98800.69;5011769;28;20026;-76
2021/08/28 08:34:31;;;;;;;6.28;1.33;;;;;;;18.00;68.90;98819.59;5005456;28;20026;-75
2021/08/28 08:36:56;;;;;;;2.80;1.50;;;;;;;17.60;70.16;98798.69;5006495;28;20045;-74
2021/08/28 08:39:21;;;;;;;2.88;1.38;;;;;;;17.95;70.54;98816.78;5006125;28;20026;-73
2021/08/28 08:41:49;;;;;;;1.65;1.08;;;;;;;17.61;68.70;98810.47;5007298;28;20539;-73
2021/08/28 08:44:16;;;;;;;1.63;1.33;;;;;;;17.71;69.73;98818.81;4999209;28;21318;-73
2021/08/28 08:46:43;;;;;;;1.50;1.10;;;;;;;17.73;70.09;98814.75;5001497;28;20091;-72
2021/08/28 08:49:11;;;;;;;1.85;1.20;;;;;;;17.68;70.74;98814.69;5006327;28;20051;-73
2021/08/28 08:51:37;;;;;;;3.97;1.08;;;;;;;17.74;70.68;98802.75;5000397;28;20030;-74
2021/08/28 08:54:04;;;;;;;3.33;1.02;;;;;;;17.73;69.12;98816.66;5004373;28;20357;-73
2021/08/28 08:56:29;;;;;;;1.45;1.20;;;;;;;17.41;70.53;98802.75;5006084;28;20179;-73
2021/08/28 08:58:55;;;;;;;3.97;1.10;;;;;;;17.50;71.44;98802.09;5000478;28;20493;-73
2021/08/28 09:01:20;;;;;;;2.75;1.08;;;;;;;17.40;71.76;98817.50;5006671;28;22031;-73
2021/08/28 09:03:46;;;;;;;2.45;1.20;;;;;;;17.12;73.79;98830.13;5000472;28;20053;-73
2021/08/28 09:06:12;;;;;;;1.30;1.20;;;;;;;17.05;74.45;98829.44;5007091;28;20072;-74
2021/08/28 09:08:38;;;;;;;1.63;1.30;;;;;;;16.97;75.26;98836.13;5002877;28;20061;-72
2021/08/28 09:11:03;;;;;;;2.72;1.20;;;;;;;16.90;75.78;98842.81;5002578;28;20053;-72
2021/08/28 09:13:29;;;;;;;1.90;1.35;;;;;;;16.86;76.74;98826.91;5002353;28;20026;-73
2021/08/28 09:16:04;;;;;;;2.10;1.30;;;;;;;16.69;76.14;98823.28;5008165;28;20439;-73
2021/08/28 09:18:50;;;;;;;1.80;1.55;;;;;;;16.51;77.78;98816.09;4997316;28;20029;-73
2021/08/28 09:21:15;;;;;;;3.40;1.50;;;;;;;16.47;79.12;98827.72;5001414;28;20029;-74
2021/08/28 09:23:40;;;;;;;4.32;1.73;;;;;;;16.38;78.83;98836.28;5005225;28;20022;-73
2021/08/28 09:26:25;;;;;;;2.80;1.60;;;;;;;16.21;78.49;98832.63;5003693;28;20026;-73
2021/08/28 09:28:55;;;;;;;1.80;1.23;;;;;;;16.42;79.29;98845.66;5006953;28;20030;-74
2021/08/28 09:31:55;;;;;;;3.50;1.70;;;;;;;16.34;80.48;98859.66;5022100;28;20021;-74
2021/08/28 09:34:25;;;;;;;4.82;1.52;;;;;;;16.27;80.19;98831.69;5005665;28;20042;-70
2021/08/28 09:37:05;;;;;;;3.22;1.50;;;;;;;16.53;80.99;98846.72;5011359;28;20044;-70
2021/08/28 09:39:48;;;;;;;2.60;1.45;;;;;;;16.48;81.09;98853.94;4992000;28;20041;-70
2021/08/28 09:42:19;;;;;;;4.40;1.50;;;;;;;16.47;79.85;98844.09;5004935;28;20033;-70
2021/08/28 09:44:46;;;;;;;3.28;1.48;;;;;;;16.34;79.99;98851.47;4998521;28;20022;-70
2021/08/28 09:47:18;;;;;;;2.83;1.40;;;;;;;16.42;80.45;98832.00;5012204;28;20378;-70
2021/08/28 09:49:46;;;;;;;2.88;1.40;;;;;;;16.62;79.98;98847.16;5011193;28;20026;-72
2021/08/28 09:52:23;;;;;;;2.17;1.25;;;;;;;16.51;80.10;98834.38;5012313;28;20021;-73
2021/08/28 09:54:49;;;;;;;1.63;1.23;;;;;;;16.35;80.31;98844.97;5006588;28;20132;-74
2021/08/28 09:57:15;;;;;;;1.55;1.17;;;;;;;16.31;80.36;98854.69;4993962;28;20105;-73
2021/08/28 09:59:42;;;;;;;1.95;1.08;;;;;;;16.17;81.72;98840.47;5007690;28;20061;-74
2021/08/28 10:02:14;;;;;;;1.80;1.00;;;;;;;16.12;80.42;98826.72;5009123;28;20109;-74
2021/08/28 10:05:10;;;;;;;1.15;0.90;;;;;;;16.30;79.63;98852.22;5009160;28;20042;-74
2021/08/28 10:07:35;;;;;;;1.48;1.10;;;;;;;16.12;79.99;98836.81;5022634;28;20097;-74
2021/08/28 10:10:04;;;;;;;1.75;1.20;;;;;;;16.23;80.60;98857.78;5008164;28;20906;-74
2021/08/28 10:12:35;;;;;;;4.00;1.02;;;;;;;16.16;80.74;98830.59;5004807;28;20026;-74
2021/08/28 10:15:03;;;;;;;3.58;1.50;;;;;;;16.12;80.57;98845.00;4998427;28;20542;-74
2021/08/28 10:17:30;;;;;;;2.80;1.70;;;;;;;15.93;81.77;98836.94;5009991;28;20120;-74
2021/08/28 10:19:55;;;;;;;1.58;1.27;;;;;;;15.83;80.24;98830.41;5011918;28;20030;-73
2021/08/28 10:22:23;;;;;;;2.50;1.25;;;;;;;16.08;81.40;98841.06;5008509;28;20034;-74
2021/08/28 10:24:54;;;;;;;1.40;1.10;;;;;;;16.03;81.24;98827.31;5002641;28;20537;-74
2021/08/28 10:27:21;;;;;;;4.00;1.38;;;;;;;16.34;80.84;98821.44;5023136;28;20030;-74
2021/08/28 10:29:48;;;;;;;2.47;1.40;;;;;;;17.13;79.71;98828.22;5015843;28;20030;-74
2021/08/28 10:32:13;;;;;;;4.07;1.00;;;;;;;19.75;71.14;98825.97;5007945;28;20121;-74
2021/08/28 10:34:39;;;;;;;1.88;0.90;;;;;;;21.54;63.73;98831.47;5002672;28;20109;-74
2021/08/28 10:37:05;;;;;;;1.55;1.10;;;;;;;22.42;58.73;98833.84;4995776;28;20037;-74
2021/08/28 10:39:30;;;;;;;1.15;1.05;;;;;;;22.59;56.97;98832.72;4997909;28;20436;-74
2021/08/28 10:41:56;;;;;;;1.17;0.80;;;;;;;23.18;56.46;98826.38;5000773;28;20035;-74
2021/08/28 10:44:22;;;;;;;2.80;0.88;;;;;;;23.10;53.69;98832.50;5012882;28;20838;-74
2021/08/28 10:46:47;;;;;;;2.88;1.00;;;;;;;21.74;55.78;98827.88;5009553;28;20026;-74
2021/08/28 10:49:13;;;;;;;0.75;0.75;;;;;;;21.10;62.04;98837.41;5010861;28;20399;-74
2021/08/28 10:51:43;;;;;;;0.93;0.82;;;;;;;21.58;59.40;98827.88;5012866;28;20108;-74
2021/08/28 10:54:13;;;;;;;1.42;1.00;;;;;;;20.94;57.35;98834.63;5011391;28;20061;-74
2021/08/28 10:56:41;;;;;;;0.95;0.73;;;;;;;20.71;60.04;98829.59;5011282;28;20231;-74
2021/08/28 10:59:19;;;;;;;2.63;0.90;;;;;;;20.90;57.86;98838.19;5005929;28;20029;-74
2021/08/28 11:01:51;;;;;;;1.67;0.75;;;;;;;21.22;59.34;98840.72;5006588;28;20060;-70
2021/08/28 11:04:30;;;;;;;3.13;0.93;;;;;;;21.45;58.68;98837.50;5000270;28;20034;-72
2021/08/28 11:07:20;;;;;;;0.93;0.70;;;;;;;21.63;58.73;98832.56;5007818;28;20033;-75
2021/08/28 11:10:06;;;;;;;3.38;1.65;;;;;;;21.11;57.86;98828.88;5013278;28;20037;-74
2021/08/28 11:12:59;;;;;;;1.10;0.70;;;;;;;21.04;58.59;98841.25;5010397;28;20022;-74
2021/08/28 11:15:25;;;;;;;1.60;0.70;;;;;;;20.68;59.39;98847.44;5011817;28;20041;-76
2021/08/28 11:17:55;;;;;;;2.55;0.80;;;;;;;20.55;58.83;98823.22;5010175;28;20030;-73
2021/08/28 11:20:26;;;;;;;2.08;0.80;;;;;;;20.47;59.69;98830.00;5011126;28;20029;-73
2021/08/28 11:22:51;;;;;;;0.93;0.70;;;;;;;20.00;58.37;98821.78;5013221;28;20026;-73
2021/08/28 11:25:22;;;;;;;0.60;0.50;;;;;;;19.85;59.49;98809.56;5013065;28;20030;-74
2021/08/28 11:27:54;;;;;;;0.57;0.47;;;;;;;20.27;58.06;98816.97;5014993;28;20100;-74
2021/08/28 11:30:39;;;;;;;0.75;0.40;;;;;;;20.56;56.35;98816.59;5014689;28;20037;-74